createdAt,value
2022-10-28T00:01:33.617Z,22.40
2022-10-28T00:06:37.612Z,22.40
2022-10-28T00:11:40.392Z,22.40
2022-10-28T00:16:44.490Z,22.40
2022-10-28T00:21:47.201Z,22.40
2022-10-28T00:26:49.878Z,22.40
2022-10-28T00:31:54.439Z,22.40
2022-10-28T00:36:57.058Z,22.40
2022-10-28T00:42:03.532Z,22.40
2022-10-28T00:47:12.704Z,22.40
2022-10-28T00:52:18.236Z,22.30
2022-10-28T00:57:23.102Z,22.40
2022-10-28T01:02:27.186Z,22.30
2022-10-28T01:07:29.932Z,22.30
2022-10-28T01:12:36.283Z,22.40
2022-10-28T01:17:46.830Z,22.30
2022-10-28T01:22:53.787Z,22.30
2022-10-28T01:28:13.370Z,22.40
2022-10-28T01:33:21.878Z,22.30
2022-10-28T01:38:30.895Z,22.30
2022-10-28T01:43:35.135Z,22.30
2022-10-28T01:48:44.088Z,22.30
2022-10-28T01:53:48.314Z,22.30
2022-10-28T01:58:51.501Z,22.20
2022-10-28T02:03:55.574Z,22.20
2022-10-28T02:09:05.700Z,22.20
2022-10-28T02:14:14.752Z,22.30
2022-10-28T02:19:25.717Z,22.20
2022-10-28T02:24:33.783Z,22.30
2022-10-28T02:29:38.398Z,22.20
2022-10-28T02:34:44.944Z,22.30
2022-10-28T02:39:50.207Z,22.30
2022-10-28T02:44:54.769Z,22.20
2022-10-28T02:50:00.811Z,22.20
2022-10-28T02:55:04.517Z,22.30
2022-10-28T03:00:08.835Z,22.20
2022-10-28T03:05:14.233Z,22.20
2022-10-28T03:10:16.951Z,22.20
2022-10-28T03:15:19.583Z,22.20
2022-10-28T03:20:23.577Z,22.20
2022-10-28T03:25:26.888Z,22.20
2022-10-28T03:30:29.599Z,22.20
2022-10-28T03:35:33.642Z,22.20
2022-10-28T03:40:36.276Z,22.20
2022-10-28T03:45:38.900Z,22.10
2022-10-28T03:50:42.895Z,22.10
2022-10-28T03:55:45.526Z,22.20
2022-10-28T04:00:48.685Z,22.10
2022-10-28T04:05:52.718Z,22.10
2022-10-28T04:10:55.471Z,22.20
2022-10-28T04:15:58.295Z,22.10
2022-10-28T04:21:03.743Z,22.10
2022-10-28T04:26:06.649Z,22.20
2022-10-28T04:31:10.058Z,22.10
2022-10-28T04:36:14.043Z,22.10
2022-10-28T04:41:16.798Z,22.10
2022-10-28T04:46:19.413Z,22.10
2022-10-28T04:51:23.412Z,22.10
2022-10-28T04:56:26.088Z,22.10
2022-10-28T05:01:29.038Z,22.10
2022-10-28T05:06:33.240Z,22.00
2022-10-28T05:11:35.859Z,22.10
2022-10-28T05:16:39.169Z,22.10
2022-10-28T05:21:43.205Z,22.10
2022-10-28T05:26:45.976Z,22.00
2022-10-28T05:31:48.630Z,22.00
2022-10-28T05:36:52.679Z,21.90
2022-10-28T05:41:55.313Z,22.00
2022-10-28T05:46:57.954Z,22.10
2022-10-28T05:52:02.025Z,22.00
2022-10-28T05:57:05.273Z,22.00
2022-10-28T06:02:11.106Z,22.00
2022-10-28T06:07:15.130Z,22.00
2022-10-28T06:12:16.234Z,22.00
2022-10-28T06:17:18.931Z,22.10
2022-10-28T06:22:22.972Z,22.00
2022-10-28T06:27:25.635Z,22.00
2022-10-28T06:32:28.282Z,22.00
2022-10-28T06:37:32.536Z,22.00
2022-10-28T06:42:35.207Z,21.80
2022-10-28T06:47:41.466Z,21.90
2022-10-28T06:52:48.177Z,22.00
2022-10-28T06:57:51.001Z,22.10
2022-10-28T07:02:54.302Z,22.10
2022-10-28T07:07:58.649Z,22.10
2022-10-28T07:13:01.319Z,22.40
2022-10-28T07:18:03.982Z,22.50
2022-10-28T07:23:09.295Z,22.40
2022-10-28T07:28:12.092Z,22.60
2022-10-28T07:33:17.021Z,22.50
2022-10-28T07:38:21.133Z,22.60
2022-10-28T07:43:23.821Z,22.60
2022-10-28T07:48:26.564Z,22.60
2022-10-28T07:53:30.691Z,22.80
2022-10-28T07:58:43.986Z,22.70
2022-10-28T08:03:47.481Z,22.70
2022-10-28T08:08:55.861Z,22.70
2022-10-28T08:13:58.964Z,22.80
2022-10-28T08:19:06.704Z,22.80
2022-10-28T08:24:11.740Z,22.60
2022-10-28T08:29:14.611Z,22.50
2022-10-28T08:34:29.561Z,22.50
2022-10-28T08:39:34.045Z,22.60
2022-10-28T08:44:54.316Z,22.80
2022-10-28T08:50:00.539Z,22.80
2022-10-28T08:55:05.568Z,22.80
2022-10-28T09:00:09.540Z,22.90
2022-10-28T09:05:18.403Z,23.10
2022-10-28T09:10:32.757Z,23.10
2022-10-28T09:15:38.570Z,23.20
2022-10-28T09:20:48.917Z,23.30
2022-10-28T09:26:00.957Z,23.30
2022-10-28T09:31:08.266Z,23.30
2022-10-28T09:36:13.778Z,23.40
2022-10-28T09:41:19.397Z,23.40
2022-10-28T09:46:23.653Z,23.30
2022-10-28T09:51:29.769Z,23.50
2022-10-28T09:56:34.375Z,23.40
2022-10-28T10:01:38.702Z,23.40
2022-10-28T10:06:44.235Z,23.50
2022-10-28T10:11:51.430Z,23.50
2022-10-28T10:16:55.284Z,23.40
2022-10-28T10:21:58.050Z,23.40
2022-10-28T10:27:03.735Z,23.30
2022-10-28T10:32:08.746Z,23.40
2022-10-28T10:37:17.428Z,23.40
2022-10-28T10:42:25.435Z,23.30
2022-10-28T10:47:28.168Z,23.50
2022-10-28T10:52:30.853Z,23.50
2022-10-28T10:57:35.517Z,23.50
2022-10-28T11:02:40.079Z,23.60
2022-10-28T11:07:49.632Z,23.60
2022-10-28T11:12:58.152Z,23.50
2022-10-28T11:18:12.815Z,23.40
2022-10-28T11:23:27.743Z,23.40
2022-10-28T11:28:38.049Z,23.50
2022-10-28T11:33:46.503Z,23.50
2022-10-28T11:39:00.968Z,23.60
2022-10-28T11:44:09.491Z,23.80
2022-10-28T11:49:30.076Z,23.90
2022-10-28T11:54:42.826Z,23.90
2022-10-28T12:00:04.315Z,23.90
2022-10-28T12:05:12.921Z,24.00
2022-10-28T12:10:20.497Z,24.10
2022-10-28T12:15:27.521Z,24.10
2022-10-28T12:20:32.685Z,24.00
2022-10-28T12:25:36.678Z,24.20
2022-10-28T12:30:48.265Z,24.20
2022-10-28T12:35:52.636Z,24.10
2022-10-28T12:41:00.684Z,24.10
2022-10-28T12:46:05.240Z,24.10
2022-10-28T12:51:12.103Z,24.20
2022-10-28T12:56:16.140Z,24.20
2022-10-28T13:01:22.246Z,24.10
2022-10-28T13:06:32.401Z,24.20
2022-10-28T13:11:43.178Z,24.20
2022-10-28T13:17:05.989Z,24.40
2022-10-28T13:22:17.321Z,24.60
2022-10-28T13:27:20.942Z,24.30
2022-10-28T13:32:32.775Z,24.30
2022-10-28T13:37:39.531Z,24.30
2022-10-28T13:42:51.043Z,24.30
2022-10-28T13:48:15.354Z,24.30
2022-10-28T13:53:38.918Z,24.40
2022-10-28T13:58:50.289Z,24.40
2022-10-28T14:03:54.632Z,24.40
2022-10-28T14:08:57.329Z,24.50
2022-10-28T14:14:01.358Z,24.60
2022-10-28T14:19:10.711Z,24.60
2022-10-28T14:24:14.606Z,24.60
2022-10-28T14:29:34.958Z,24.50
2022-10-28T14:34:51.534Z,24.70
2022-10-28T14:40:02.496Z,24.70
2022-10-28T14:45:12.359Z,25.00
2022-10-28T14:50:20.251Z,25.00
2022-10-28T14:55:25.150Z,25.00
2022-10-28T15:00:29.788Z,25.00
2022-10-28T15:05:35.134Z,25.10
2022-10-28T15:10:39.428Z,25.00
2022-10-28T15:15:52.486Z,25.00
2022-10-28T15:21:09.947Z,25.00
2022-10-28T15:26:13.543Z,25.10
2022-10-28T15:31:17.356Z,25.00
2022-10-28T15:36:22.314Z,24.90
2022-10-28T15:41:52.300Z,24.70
2022-10-28T15:46:56.060Z,24.50
2022-10-28T15:52:17.212Z,24.70
2022-10-28T15:57:23.725Z,24.70
2022-10-28T16:02:40.569Z,24.40
2022-10-28T16:07:55.902Z,24.50
2022-10-28T16:13:00.167Z,24.40
2022-10-28T16:18:03.134Z,24.30
2022-10-28T16:23:05.802Z,24.20
2022-10-28T16:28:14.268Z,24.20
2022-10-28T16:33:17.037Z,24.10
2022-10-28T16:38:20.001Z,24.00
2022-10-28T16:43:25.244Z,24.00
2022-10-28T16:48:38.876Z,24.10
2022-10-28T16:53:46.715Z,23.90
2022-10-28T16:58:50.731Z,23.90
2022-10-28T17:03:53.391Z,23.80
2022-10-28T17:09:03.925Z,23.90
2022-10-28T17:14:09.204Z,23.80
2022-10-28T17:19:11.943Z,23.80
2022-10-28T17:24:14.791Z,23.80
2022-10-28T17:29:19.104Z,23.70
2022-10-28T17:34:22.785Z,23.70
2022-10-28T17:39:26.595Z,23.60
2022-10-28T17:44:30.751Z,23.60
2022-10-28T17:49:34.241Z,23.60
2022-10-28T17:54:36.884Z,23.60
2022-10-28T17:59:40.963Z,23.60
2022-10-28T18:04:43.633Z,23.50
2022-10-28T18:09:46.325Z,23.50
2022-10-28T18:15:00.241Z,23.50
2022-10-28T18:20:02.932Z,23.50
2022-10-28T18:25:05.993Z,23.50
2022-10-28T18:30:11.219Z,23.50
2022-10-28T18:35:13.986Z,23.40
2022-10-28T18:40:16.759Z,23.40
2022-10-28T18:45:20.746Z,23.40
2022-10-28T18:50:23.373Z,23.30
2022-10-28T18:55:26.059Z,23.40
2022-10-28T19:00:30.148Z,23.40
2022-10-28T19:05:33.631Z,23.40
2022-10-28T19:10:36.280Z,23.30
2022-10-28T19:15:46.465Z,23.30
2022-10-28T19:20:50.594Z,23.40
2022-10-28T19:25:56.657Z,23.30
2022-10-28T19:31:04.416Z,23.30
2022-10-28T19:36:08.125Z,23.30
2022-10-28T19:41:11.412Z,23.30
2022-10-28T19:46:16.235Z,23.40
2022-10-28T19:51:20.251Z,23.30
2022-10-28T19:56:23.888Z,23.30
2022-10-28T20:01:28.942Z,23.20
2022-10-28T20:06:32.661Z,23.30
2022-10-28T20:11:35.966Z,23.30
2022-10-28T20:16:43.534Z,23.30
2022-10-28T20:21:48.427Z,23.20
2022-10-28T20:26:51.085Z,23.20
2022-10-28T20:31:55.910Z,23.20
2022-10-28T20:36:58.628Z,23.30
2022-10-28T20:42:01.274Z,23.30
2022-10-28T20:47:05.313Z,23.30
2022-10-28T20:52:07.944Z,23.30
2022-10-28T20:57:10.618Z,23.20
2022-10-28T21:02:14.682Z,23.20
2022-10-28T21:07:17.485Z,23.20
2022-10-28T21:12:20.125Z,23.30
2022-10-28T21:17:24.556Z,23.20
2022-10-28T21:22:27.727Z,23.20
2022-10-28T21:27:30.569Z,23.20
2022-10-28T21:32:37.102Z,23.20
2022-10-28T21:37:50.042Z,23.20
2022-10-28T21:42:52.987Z,23.20
2022-10-28T21:47:57.321Z,23.20
2022-10-28T21:53:03.613Z,23.20
2022-10-28T21:58:07.034Z,23.20
2022-10-28T22:03:11.219Z,23.20
2022-10-28T22:08:13.897Z,23.20
2022-10-28T22:13:16.547Z,23.20
2022-10-28T22:18:20.553Z,23.10
2022-10-28T22:23:23.836Z,23.20
2022-10-28T22:28:26.456Z,23.20
2022-10-28T22:33:30.534Z,23.20
2022-10-28T22:38:33.458Z,23.20
2022-10-28T22:43:36.132Z,23.20
2022-10-28T22:48:40.173Z,23.10
2022-10-28T22:53:42.883Z,23.10
2022-10-28T22:58:45.705Z,23.10
2022-10-28T23:03:50.191Z,23.10
2022-10-28T23:08:52.867Z,23.10
2022-10-28T23:13:55.800Z,23.10
2022-10-28T23:19:00.998Z,23.10
2022-10-28T23:24:03.833Z,23.10
2022-10-28T23:29:06.595Z,23.10
2022-10-28T23:34:10.627Z,23.10
2022-10-28T23:39:13.299Z,23.20
2022-10-28T23:44:16.046Z,23.10
2022-10-28T23:49:20.029Z,23.10
2022-10-28T23:54:22.818Z,23.10
2022-10-28T23:59:25.592Z,23.00
